sensor_id;sensor_type;location;lat;lon;timestamp;P1;durP1;ratioP1;P2;durP2;ratioP2
40637;SDS011;26336;44.696;10.622;2023-12-20T00:00:17;21.20;;;13.77;;
40637;SDS011;26336;44.696;10.622;2023-12-20T00:03:21;20.33;;;14.97;;
40637;SDS011;26336;44.696;10.622;2023-12-20T00:06:25;42.30;;;23.30;;
40637;SDS011;26336;44.696;10.622;2023-12-20T00:09:29;66.93;;;31.03;;
40637;SDS011;26336;44.696;10.622;2023-12-20T00:12:34;62.60;;;31.07;;
40637;SDS011;26336;44.696;10.622;2023-12-20T00:15:38;57.87;;;28.03;;
40637;SDS011;26336;44.696;10.622;2023-12-20T00:18:41;40.33;;;21.73;;
40637;SDS011;26336;44.696;10.622;2023-12-20T00:21:45;30.60;;;16.87;;
40637;SDS011;26336;44.696;10.622;2023-12-20T00:24:50;24.40;;;15.17;;
40637;SDS011;26336;44.696;10.622;2023-12-20T00:27:53;21.80;;;13.97;;
40637;SDS011;26336;44.696;10.622;2023-12-20T00:30:57;20.53;;;13.37;;
40637;SDS011;26336;44.696;10.622;2023-12-20T00:34:03;22.37;;;13.90;;
40637;SDS011;26336;44.696;10.622;2023-12-20T00:37:07;17.80;;;12.47;;
40637;SDS011;26336;44.696;10.622;2023-12-20T00:40:11;18.77;;;13.07;;
40637;SDS011;26336;44.696;10.622;2023-12-20T00:43:15;18.73;;;12.20;;
40637;SDS011;26336;44.696;10.622;2023-12-20T00:46:19;19.70;;;12.33;;
40637;SDS011;26336;44.696;10.622;2023-12-20T00:49:23;18.00;;;12.30;;
40637;SDS011;26336;44.696;10.622;2023-12-20T00:52:27;16.93;;;11.23;;
40637;SDS011;26336;44.696;10.622;2023-12-20T00:55:31;15.00;;;9.97;;
40637;SDS011;26336;44.696;10.622;2023-12-20T00:58:35;15.30;;;11.43;;
40637;SDS011;26336;44.696;10.622;2023-12-20T01:01:39;16.60;;;11.67;;
40637;SDS011;26336;44.696;10.622;2023-12-20T01:04:43;17.80;;;12.10;;
40637;SDS011;26336;44.696;10.622;2023-12-20T01:07:47;17.73;;;12.63;;
40637;SDS011;26336;44.696;10.622;2023-12-20T01:10:50;16.97;;;10.97;;
40637;SDS011;26336;44.696;10.622;2023-12-20T01:13:55;16.63;;;11.63;;
40637;SDS011;26336;44.696;10.622;2023-12-20T01:16:59;16.40;;;10.80;;
40637;SDS011;26336;44.696;10.622;2023-12-20T01:20:03;18.47;;;11.33;;
40637;SDS011;26336;44.696;10.622;2023-12-20T01:23:08;15.93;;;10.53;;
40637;SDS011;26336;44.696;10.622;2023-12-20T01:26:11;13.37;;;9.97;;
40637;SDS011;26336;44.696;10.622;2023-12-20T01:29:16;14.23;;;10.27;;
40637;SDS011;26336;44.696;10.622;2023-12-20T01:32:20;16.47;;;10.67;;
40637;SDS011;26336;44.696;10.622;2023-12-20T01:35:25;13.77;;;10.07;;
40637;SDS011;26336;44.696;10.622;2023-12-20T01:38:29;16.70;;;11.03;;
40637;SDS011;26336;44.696;10.622;2023-12-20T01:41:32;14.20;;;10.63;;
40637;SDS011;26336;44.696;10.622;2023-12-20T01:44:36;16.27;;;10.70;;
40637;SDS011;26336;44.696;10.622;2023-12-20T01:47:40;21.07;;;12.60;;
40637;SDS011;26336;44.696;10.622;2023-12-20T01:50:45;19.80;;;12.20;;
40637;SDS011;26336;44.696;10.622;2023-12-20T01:53:49;17.63;;;11.93;;
40637;SDS011;26336;44.696;10.622;2023-12-20T01:56:53;19.57;;;12.40;;
40637;SDS011;26336;44.696;10.622;2023-12-20T01:59:56;19.83;;;13.17;;
40637;SDS011;26336;44.696;10.622;2023-12-20T02:03:01;22.10;;;13.57;;
40637;SDS011;26336;44.696;10.622;2023-12-20T02:06:06;21.37;;;14.03;;
40637;SDS011;26336;44.696;10.622;2023-12-20T02:09:11;19.70;;;14.30;;
40637;SDS011;26336;44.696;10.622;2023-12-20T02:12:15;18.63;;;11.40;;
40637;SDS011;26336;44.696;10.622;2023-12-20T02:15:19;14.33;;;10.40;;
40637;SDS011;26336;44.696;10.622;2023-12-20T02:18:23;16.17;;;10.50;;
40637;SDS011;26336;44.696;10.622;2023-12-20T02:21:33;12.83;;;9.37;;
40637;SDS011;26336;44.696;10.622;2023-12-20T02:24:40;13.82;;;9.30;;
40637;SDS011;26336;44.696;10.622;2023-12-20T02:27:44;13.20;;;9.50;;
40637;SDS011;26336;44.696;10.622;2023-12-20T02:30:48;11.73;;;8.57;;
40637;SDS011;26336;44.696;10.622;2023-12-20T02:33:52;12.60;;;8.63;;
40637;SDS011;26336;44.696;10.622;2023-12-20T02:36:56;12.70;;;8.83;;
40637;SDS011;26336;44.696;10.622;2023-12-20T02:40:00;12.00;;;8.87;;
40637;SDS011;26336;44.696;10.622;2023-12-20T02:43:04;13.23;;;9.40;;
40637;SDS011;26336;44.696;10.622;2023-12-20T02:46:08;13.97;;;9.30;;
40637;SDS011;26336;44.696;10.622;2023-12-20T02:49:12;11.73;;;8.77;;
40637;SDS011;26336;44.696;10.622;2023-12-20T02:52:16;10.27;;;7.90;;
40637;SDS011;26336;44.696;10.622;2023-12-20T02:55:20;9.03;;;6.90;;
40637;SDS011;26336;44.696;10.622;2023-12-20T02:58:24;10.80;;;6.63;;
40637;SDS011;26336;44.696;10.622;2023-12-20T03:01:28;9.13;;;7.17;;
40637;SDS011;26336;44.696;10.622;2023-12-20T03:04:33;11.40;;;6.40;;
40637;SDS011;26336;44.696;10.622;2023-12-20T03:07:37;8.80;;;6.30;;
40637;SDS011;26336;44.696;10.622;2023-12-20T03:10:41;9.03;;;5.83;;
40637;SDS011;26336;44.696;10.622;2023-12-20T03:13:45;7.77;;;5.77;;
40637;SDS011;26336;44.696;10.622;2023-12-20T03:16:49;9.90;;;6.70;;
40637;SDS011;26336;44.696;10.622;2023-12-20T03:19:54;9.63;;;6.10;;
40637;SDS011;26336;44.696;10.622;2023-12-20T03:22:58;9.30;;;6.20;;
40637;SDS011;26336;44.696;10.622;2023-12-20T03:26:03;7.47;;;5.83;;
40637;SDS011;26336;44.696;10.622;2023-12-20T03:29:10;8.87;;;5.37;;
40637;SDS011;26336;44.696;10.622;2023-12-20T03:32:14;7.67;;;5.27;;
40637;SDS011;26336;44.696;10.622;2023-12-20T03:35:20;7.03;;;4.80;;
40637;SDS011;26336;44.696;10.622;2023-12-20T03:38:24;8.10;;;5.73;;
40637;SDS011;26336;44.696;10.622;2023-12-20T03:41:28;7.87;;;5.83;;
40637;SDS011;26336;44.696;10.622;2023-12-20T03:44:32;8.77;;;5.20;;
40637;SDS011;26336;44.696;10.622;2023-12-20T03:47:36;7.47;;;5.23;;
40637;SDS011;26336;44.696;10.622;2023-12-20T03:50:41;7.67;;;5.60;;
40637;SDS011;26336;44.696;10.622;2023-12-20T03:53:45;9.63;;;5.37;;
40637;SDS011;26336;44.696;10.622;2023-12-20T03:56:49;8.60;;;5.97;;
40637;SDS011;26336;44.696;10.622;2023-12-20T03:59:53;9.03;;;5.43;;
40637;SDS011;26336;44.696;10.622;2023-12-20T04:02:57;7.30;;;5.97;;
40637;SDS011;26336;44.696;10.622;2023-12-20T04:06:01;8.60;;;5.73;;
40637;SDS011;26336;44.696;10.622;2023-12-20T04:09:05;8.03;;;5.80;;
40637;SDS011;26336;44.696;10.622;2023-12-20T04:12:09;8.80;;;6.50;;
40637;SDS011;26336;44.696;10.622;2023-12-20T04:15:13;11.13;;;6.07;;
40637;SDS011;26336;44.696;10.622;2023-12-20T04:18:16;8.63;;;5.97;;
40637;SDS011;26336;44.696;10.622;2023-12-20T04:21:20;8.53;;;6.50;;
40637;SDS011;26336;44.696;10.622;2023-12-20T04:24:25;12.00;;;6.10;;
40637;SDS011;26336;44.696;10.622;2023-12-20T04:27:29;10.23;;;6.07;;
40637;SDS011;26336;44.696;10.622;2023-12-20T04:30:33;9.77;;;7.20;;
40637;SDS011;26336;44.696;10.622;2023-12-20T04:33:38;11.37;;;8.40;;
40637;SDS011;26336;44.696;10.622;2023-12-20T04:36:42;14.00;;;9.63;;
40637;SDS011;26336;44.696;10.622;2023-12-20T04:39:46;13.43;;;9.73;;
40637;SDS011;26336;44.696;10.622;2023-12-20T04:42:51;11.03;;;8.07;;
40637;SDS011;26336;44.696;10.622;2023-12-20T04:45:55;14.73;;;8.30;;
40637;SDS011;26336;44.696;10.622;2023-12-20T04:48:58;10.90;;;7.10;;
40637;SDS011;26336;44.696;10.622;2023-12-20T04:52:02;11.47;;;7.17;;
40637;SDS011;26336;44.696;10.622;2023-12-20T04:55:07;10.63;;;7.50;;
40637;SDS011;26336;44.696;10.622;2023-12-20T04:58:11;10.47;;;7.00;;
40637;SDS011;26336;44.696;10.622;2023-12-20T05:01:15;10.90;;;7.37;;
40637;SDS011;26336;44.696;10.622;2023-12-20T05:04:20;10.80;;;6.83;;
40637;SDS011;26336;44.696;10.622;2023-12-20T05:07:24;8.60;;;6.53;;
40637;SDS011;26336;44.696;10.622;2023-12-20T05:10:27;8.10;;;6.07;;
40637;SDS011;26336;44.696;10.622;2023-12-20T05:13:31;7.73;;;5.60;;
40637;SDS011;26336;44.696;10.622;2023-12-20T05:16:35;8.10;;;6.00;;
40637;SDS011;26336;44.696;10.622;2023-12-20T05:19:39;8.97;;;6.03;;
40637;SDS011;26336;44.696;10.622;2023-12-20T05:22:43;8.53;;;5.60;;
40637;SDS011;26336;44.696;10.622;2023-12-20T05:25:48;6.70;;;5.37;;
40637;SDS011;26336;44.696;10.622;2023-12-20T05:28:52;7.77;;;5.67;;
40637;SDS011;26336;44.696;10.622;2023-12-20T05:31:57;8.20;;;5.13;;
40637;SDS011;26336;44.696;10.622;2023-12-20T05:35:01;7.40;;;4.60;;
40637;SDS011;26336;44.696;10.622;2023-12-20T05:38:06;8.87;;;4.33;;
40637;SDS011;26336;44.696;10.622;2023-12-20T05:41:10;7.27;;;4.40;;
40637;SDS011;26336;44.696;10.622;2023-12-20T05:44:14;6.57;;;4.43;;
40637;SDS011;26336;44.696;10.622;2023-12-20T05:47:18;7.33;;;4.87;;
40637;SDS011;26336;44.696;10.622;2023-12-20T05:50:22;6.93;;;5.03;;
40637;SDS011;26336;44.696;10.622;2023-12-20T05:53:26;7.33;;;5.27;;
40637;SDS011;26336;44.696;10.622;2023-12-20T05:56:30;9.23;;;4.90;;
40637;SDS011;26336;44.696;10.622;2023-12-20T05:59:34;8.70;;;5.30;;
40637;SDS011;26336;44.696;10.622;2023-12-20T06:02:37;8.23;;;5.33;;
40637;SDS011;26336;44.696;10.622;2023-12-20T06:05:41;9.13;;;5.80;;
40637;SDS011;26336;44.696;10.622;2023-12-20T06:08:45;7.40;;;5.73;;
40637;SDS011;26336;44.696;10.622;2023-12-20T06:11:49;7.60;;;5.63;;
40637;SDS011;26336;44.696;10.622;2023-12-20T06:14:54;9.27;;;6.07;;
40637;SDS011;26336;44.696;10.622;2023-12-20T06:17:58;7.53;;;4.73;;
40637;SDS011;26336;44.696;10.622;2023-12-20T06:21:02;6.00;;;4.10;;
40637;SDS011;26336;44.696;10.622;2023-12-20T06:24:07;7.57;;;4.43;;
40637;SDS011;26336;44.696;10.622;2023-12-20T06:27:10;7.23;;;4.77;;
40637;SDS011;26336;44.696;10.622;2023-12-20T06:30:15;16.80;;;10.27;;
40637;SDS011;26336;44.696;10.622;2023-12-20T06:33:19;22.47;;;14.37;;
40637;SDS011;26336;44.696;10.622;2023-12-20T06:36:28;15.63;;;11.17;;
40637;SDS011;26336;44.696;10.622;2023-12-20T06:39:32;17.87;;;10.33;;
40637;SDS011;26336;44.696;10.622;2023-12-20T06:42:37;11.83;;;8.03;;
40637;SDS011;26336;44.696;10.622;2023-12-20T06:45:41;10.17;;;6.90;;
40637;SDS011;26336;44.696;10.622;2023-12-20T06:48:45;14.13;;;8.10;;
40637;SDS011;26336;44.696;10.622;2023-12-20T06:51:52;15.03;;;7.40;;
40637;SDS011;26336;44.696;10.622;2023-12-20T06:54:57;14.47;;;7.13;;
40637;SDS011;26336;44.696;10.622;2023-12-20T06:58:01;11.40;;;7.73;;
40637;SDS011;26336;44.696;10.622;2023-12-20T07:01:10;11.83;;;7.67;;
40637;SDS011;26336;44.696;10.622;2023-12-20T07:04:19;11.32;;;7.05;;
40637;SDS011;26336;44.696;10.622;2023-12-20T07:07:25;12.50;;;7.00;;
40637;SDS011;26336;44.696;10.622;2023-12-20T07:10:29;11.70;;;7.47;;
40637;SDS011;26336;44.696;10.622;2023-12-20T07:13:33;8.77;;;6.20;;
40637;SDS011;26336;44.696;10.622;2023-12-20T07:16:38;17.73;;;9.97;;
40637;SDS011;26336;44.696;10.622;2023-12-20T07:19:42;14.90;;;10.17;;
40637;SDS011;26336;44.696;10.622;2023-12-20T07:22:46;16.70;;;9.53;;
40637;SDS011;26336;44.696;10.622;2023-12-20T07:25:50;16.80;;;9.30;;
40637;SDS011;26336;44.696;10.622;2023-12-20T07:28:57;14.50;;;10.23;;
40637;SDS011;26336;44.696;10.622;2023-12-20T07:32:01;19.90;;;10.57;;
40637;SDS011;26336;44.696;10.622;2023-12-20T07:35:05;14.63;;;9.57;;
40637;SDS011;26336;44.696;10.622;2023-12-20T07:38:10;12.43;;;8.67;;
40637;SDS011;26336;44.696;10.622;2023-12-20T07:41:15;16.40;;;9.73;;
40637;SDS011;26336;44.696;10.622;2023-12-20T07:44:19;16.33;;;9.73;;
40637;SDS011;26336;44.696;10.622;2023-12-20T07:47:23;14.07;;;9.13;;
40637;SDS011;26336;44.696;10.622;2023-12-20T07:50:28;13.43;;;8.90;;
40637;SDS011;26336;44.696;10.622;2023-12-20T07:53:32;15.07;;;8.03;;
40637;SDS011;26336;44.696;10.622;2023-12-20T07:56:37;14.83;;;10.00;;
40637;SDS011;26336;44.696;10.622;2023-12-20T07:59:43;16.67;;;9.80;;
40637;SDS011;26336;44.696;10.622;2023-12-20T08:02:48;14.83;;;8.37;;
40637;SDS011;26336;44.696;10.622;2023-12-20T08:05:52;12.77;;;8.83;;
40637;SDS011;26336;44.696;10.622;2023-12-20T08:08:56;13.97;;;9.20;;
40637;SDS011;26336;44.696;10.622;2023-12-20T08:12:01;10.97;;;7.70;;
40637;SDS011;26336;44.696;10.622;2023-12-20T08:15:05;10.90;;;7.50;;
40637;SDS011;26336;44.696;10.622;2023-12-20T08:18:09;9.77;;;7.27;;
40637;SDS011;26336;44.696;10.622;2023-12-20T08:21:13;10.20;;;6.83;;
40637;SDS011;26336;44.696;10.622;2023-12-20T08:24:17;9.90;;;7.60;;
40637;SDS011;26336;44.696;10.622;2023-12-20T08:27:21;9.97;;;7.53;;
40637;SDS011;26336;44.696;10.622;2023-12-20T08:30:25;10.67;;;7.27;;
40637;SDS011;26336;44.696;10.622;2023-12-20T08:33:29;14.90;;;9.03;;
40637;SDS011;26336;44.696;10.622;2023-12-20T08:36:33;14.57;;;8.67;;
40637;SDS011;26336;44.696;10.622;2023-12-20T08:39:37;14.93;;;9.07;;
40637;SDS011;26336;44.696;10.622;2023-12-20T08:42:41;15.07;;;9.30;;
40637;SDS011;26336;44.696;10.622;2023-12-20T08:45:45;14.30;;;8.20;;
40637;SDS011;26336;44.696;10.622;2023-12-20T08:48:49;10.90;;;8.57;;
40637;SDS011;26336;44.696;10.622;2023-12-20T08:51:53;13.20;;;8.40;;
40637;SDS011;26336;44.696;10.622;2023-12-20T08:54:57;12.77;;;8.13;;
40637;SDS011;26336;44.696;10.622;2023-12-20T08:58:01;11.80;;;8.03;;
40637;SDS011;26336;44.696;10.622;2023-12-20T09:01:05;11.47;;;8.20;;
40637;SDS011;26336;44.696;10.622;2023-12-20T09:04:11;13.83;;;8.90;;
40637;SDS011;26336;44.696;10.622;2023-12-20T09:07:25;11.50;;;8.83;;
40637;SDS011;26336;44.696;10.622;2023-12-20T09:10:29;13.30;;;10.17;;
40637;SDS011;26336;44.696;10.622;2023-12-20T09:13:33;18.43;;;10.93;;
40637;SDS011;26336;44.696;10.622;2023-12-20T09:16:37;19.07;;;12.23;;
40637;SDS011;26336;44.696;10.622;2023-12-20T09:19:41;16.93;;;12.27;;
40637;SDS011;26336;44.696;10.622;2023-12-20T09:22:47;15.17;;;11.63;;
40637;SDS011;26336;44.696;10.622;2023-12-20T09:25:51;19.47;;;12.27;;
40637;SDS011;26336;44.696;10.622;2023-12-20T09:28:55;18.57;;;12.97;;
40637;SDS011;26336;44.696;10.622;2023-12-20T09:31:59;18.90;;;13.10;;
40637;SDS011;26336;44.696;10.622;2023-12-20T09:35:03;16.63;;;12.50;;
40637;SDS011;26336;44.696;10.622;2023-12-20T09:38:09;19.00;;;13.17;;
40637;SDS011;26336;44.696;10.622;2023-12-20T09:41:14;17.73;;;12.83;;
40637;SDS011;26336;44.696;10.622;2023-12-20T09:44:18;19.90;;;13.87;;
40637;SDS011;26336;44.696;10.622;2023-12-20T09:47:22;23.47;;;16.03;;
40637;SDS011;26336;44.696;10.622;2023-12-20T09:50:30;24.07;;;14.27;;
40637;SDS011;26336;44.696;10.622;2023-12-20T09:53:36;21.07;;;14.03;;
40637;SDS011;26336;44.696;10.622;2023-12-20T09:56:41;22.80;;;14.80;;
40637;SDS011;26336;44.696;10.622;2023-12-20T09:59:45;22.67;;;14.23;;
40637;SDS011;26336;44.696;10.622;2023-12-20T10:02:59;22.43;;;14.00;;
40637;SDS011;26336;44.696;10.622;2023-12-20T10:06:04;24.10;;;15.23;;
40637;SDS011;26336;44.696;10.622;2023-12-20T10:09:08;21.40;;;14.83;;
40637;SDS011;26336;44.696;10.622;2023-12-20T10:12:13;20.37;;;14.40;;
40637;SDS011;26336;44.696;10.622;2023-12-20T10:15:17;19.13;;;13.77;;
40637;SDS011;26336;44.696;10.622;2023-12-20T10:18:21;25.37;;;15.03;;
40637;SDS011;26336;44.696;10.622;2023-12-20T10:21:25;25.43;;;16.97;;
40637;SDS011;26336;44.696;10.622;2023-12-20T10:24:30;27.10;;;15.80;;
40637;SDS011;26336;44.696;10.622;2023-12-20T10:27:34;25.77;;;16.70;;
40637;SDS011;26336;44.696;10.622;2023-12-20T10:30:38;27.03;;;17.33;;
40637;SDS011;26336;44.696;10.622;2023-12-20T10:33:44;24.63;;;16.10;;
40637;SDS011;26336;44.696;10.622;2023-12-20T10:36:48;26.97;;;17.23;;
40637;SDS011;26336;44.696;10.622;2023-12-20T10:39:53;26.00;;;17.33;;
40637;SDS011;26336;44.696;10.622;2023-12-20T10:43:00;28.37;;;16.83;;
40637;SDS011;26336;44.696;10.622;2023-12-20T10:46:07;26.43;;;18.63;;
40637;SDS011;26336;44.696;10.622;2023-12-20T10:49:11;30.63;;;20.13;;
40637;SDS011;26336;44.696;10.622;2023-12-20T10:52:16;25.17;;;15.77;;
40637;SDS011;26336;44.696;10.622;2023-12-20T10:55:20;27.77;;;16.20;;
40637;SDS011;26336;44.696;10.622;2023-12-20T10:58:27;24.30;;;14.50;;
40637;SDS011;26336;44.696;10.622;2023-12-20T11:01:33;27.47;;;14.83;;
40637;SDS011;26336;44.696;10.622;2023-12-20T11:07:49;23.20;;;14.07;;
40637;SDS011;26336;44.696;10.622;2023-12-20T11:15:00;26.53;;;14.10;;
40637;SDS011;26336;44.696;10.622;2023-12-20T11:17:56;22.60;;;13.67;;
40637;SDS011;26336;44.696;10.622;2023-12-20T11:21:06;26.87;;;15.73;;
40637;SDS011;26336;44.696;10.622;2023-12-20T11:24:10;29.10;;;17.20;;
40637;SDS011;26336;44.696;10.622;2023-12-20T11:27:14;24.70;;;16.97;;
40637;SDS011;26336;44.696;10.622;2023-12-20T11:30:18;24.00;;;15.87;;
40637;SDS011;26336;44.696;10.622;2023-12-20T11:33:24;25.93;;;16.13;;
40637;SDS011;26336;44.696;10.622;2023-12-20T11:36:32;26.20;;;15.23;;
40637;SDS011;26336;44.696;10.622;2023-12-20T11:39:36;23.50;;;15.10;;
40637;SDS011;26336;44.696;10.622;2023-12-20T11:42:41;23.93;;;15.97;;
40637;SDS011;26336;44.696;10.622;2023-12-20T11:45:49;23.40;;;15.33;;
40637;SDS011;26336;44.696;10.622;2023-12-20T11:48:57;23.77;;;14.50;;
40637;SDS011;26336;44.696;10.622;2023-12-20T11:52:01;25.27;;;15.00;;
40637;SDS011;26336;44.696;10.622;2023-12-20T11:55:05;20.67;;;14.67;;
40637;SDS011;26336;44.696;10.622;2023-12-20T11:58:09;20.80;;;14.87;;
40637;SDS011;26336;44.696;10.622;2023-12-20T12:01:13;28.93;;;15.33;;
40637;SDS011;26336;44.696;10.622;2023-12-20T12:04:17;22.40;;;13.57;;
40637;SDS011;26336;44.696;10.622;2023-12-20T12:07:21;22.50;;;14.20;;
40637;SDS011;26336;44.696;10.622;2023-12-20T12:10:25;23.97;;;15.73;;
40637;SDS011;26336;44.696;10.622;2023-12-20T12:13:30;24.20;;;15.43;;
40637;SDS011;26336;44.696;10.622;2023-12-20T12:16:34;29.53;;;17.70;;
40637;SDS011;26336;44.696;10.622;2023-12-20T12:19:39;55.43;;;32.00;;
40637;SDS011;26336;44.696;10.622;2023-12-20T12:22:44;30.27;;;18.93;;
40637;SDS011;26336;44.696;10.622;2023-12-20T12:25:48;40.97;;;25.47;;
40637;SDS011;26336;44.696;10.622;2023-12-20T12:28:52;32.23;;;19.50;;
40637;SDS011;26336;44.696;10.622;2023-12-20T12:31:56;30.87;;;17.63;;
40637;SDS011;26336;44.696;10.622;2023-12-20T12:35:03;24.57;;;16.27;;
40637;SDS011;26336;44.696;10.622;2023-12-20T12:38:09;27.03;;;17.47;;
40637;SDS011;26336;44.696;10.622;2023-12-20T12:44:44;23.57;;;15.70;;
40637;SDS011;26336;44.696;10.622;2023-12-20T12:47:49;26.07;;;17.10;;
40637;SDS011;26336;44.696;10.622;2023-12-20T12:54:44;31.40;;;18.53;;
40637;SDS011;26336;44.696;10.622;2023-12-20T12:57:54;29.60;;;18.20;;
40637;SDS011;26336;44.696;10.622;2023-12-20T13:01:08;26.73;;;18.63;;
40637;SDS011;26336;44.696;10.622;2023-12-20T13:04:14;25.17;;;17.87;;
40637;SDS011;26336;44.696;10.622;2023-12-20T13:08:03;24.13;;;16.63;;
40637;SDS011;26336;44.696;10.622;2023-12-20T13:12:05;30.10;;;17.30;;
40637;SDS011;26336;44.696;10.622;2023-12-20T13:15:12;26.77;;;16.47;;
40637;SDS011;26336;44.696;10.622;2023-12-20T13:18:28;24.27;;;16.70;;
40637;SDS011;26336;44.696;10.622;2023-12-20T13:21:32;27.33;;;16.97;;
40637;SDS011;26336;44.696;10.622;2023-12-20T13:24:36;29.03;;;18.93;;
40637;SDS011;26336;44.696;10.622;2023-12-20T13:27:41;30.13;;;18.93;;
40637;SDS011;26336;44.696;10.622;2023-12-20T13:31:00;28.50;;;19.07;;
40637;SDS011;26336;44.696;10.622;2023-12-20T13:34:26;27.47;;;18.33;;
40637;SDS011;26336;44.696;10.622;2023-12-20T13:37:35;26.07;;;18.23;;
40637;SDS011;26336;44.696;10.622;2023-12-20T13:40:42;27.77;;;17.77;;
40637;SDS011;26336;44.696;10.622;2023-12-20T13:43:47;28.63;;;18.67;;
40637;SDS011;26336;44.696;10.622;2023-12-20T13:46:51;29.23;;;19.37;;
40637;SDS011;26336;44.696;10.622;2023-12-20T13:50:04;28.03;;;20.20;;
40637;SDS011;26336;44.696;10.622;2023-12-20T13:53:21;32.83;;;20.95;;
40637;SDS011;26336;44.696;10.622;2023-12-20T14:00:36;28.13;;;18.17;;
40637;SDS011;26336;44.696;10.622;2023-12-20T14:03:40;28.03;;;17.83;;
40637;SDS011;26336;44.696;10.622;2023-12-20T14:06:51;35.87;;;22.03;;
40637;SDS011;26336;44.696;10.622;2023-12-20T14:10:07;27.77;;;20.63;;
40637;SDS011;26336;44.696;10.622;2023-12-20T14:16:50;27.23;;;18.30;;
40637;SDS011;26336;44.696;10.622;2023-12-20T14:20:01;29.10;;;18.23;;
40637;SDS011;26336;44.696;10.622;2023-12-20T14:23:08;28.77;;;17.93;;
40637;SDS011;26336;44.696;10.622;2023-12-20T14:26:15;27.73;;;16.97;;
40637;SDS011;26336;44.696;10.622;2023-12-20T14:29:19;26.87;;;18.70;;
40637;SDS011;26336;44.696;10.622;2023-12-20T14:32:23;26.23;;;17.33;;
40637;SDS011;26336;44.696;10.622;2023-12-20T14:35:30;29.40;;;19.90;;
40637;SDS011;26336;44.696;10.622;2023-12-20T14:38:34;24.83;;;17.07;;
40637;SDS011;26336;44.696;10.622;2023-12-20T14:41:38;26.57;;;18.90;;
40637;SDS011;26336;44.696;10.622;2023-12-20T14:44:45;30.73;;;21.93;;
40637;SDS011;26336;44.696;10.622;2023-12-20T14:47:49;30.97;;;22.97;;
40637;SDS011;26336;44.696;10.622;2023-12-20T14:50:54;33.57;;;24.53;;
40637;SDS011;26336;44.696;10.622;2023-12-20T14:53:58;35.00;;;24.27;;
40637;SDS011;26336;44.696;10.622;2023-12-20T14:57:01;34.80;;;24.40;;
40637;SDS011;26336;44.696;10.622;2023-12-20T15:00:06;32.93;;;22.27;;
40637;SDS011;26336;44.696;10.622;2023-12-20T15:03:11;31.47;;;22.93;;
40637;SDS011;26336;44.696;10.622;2023-12-20T15:06:15;33.20;;;22.07;;
40637;SDS011;26336;44.696;10.622;2023-12-20T15:09:18;40.60;;;24.40;;
40637;SDS011;26336;44.696;10.622;2023-12-20T15:12:22;38.93;;;23.20;;
40637;SDS011;26336;44.696;10.622;2023-12-20T15:15:26;33.20;;;23.20;;
40637;SDS011;26336;44.696;10.622;2023-12-20T15:18:32;35.60;;;22.50;;
40637;SDS011;26336;44.696;10.622;2023-12-20T15:21:35;32.30;;;21.00;;
40637;SDS011;26336;44.696;10.622;2023-12-20T15:24:44;31.50;;;22.10;;
40637;SDS011;26336;44.696;10.622;2023-12-20T15:27:50;31.50;;;22.57;;
40637;SDS011;26336;44.696;10.622;2023-12-20T15:30:56;33.43;;;22.60;;
40637;SDS011;26336;44.696;10.622;2023-12-20T15:34:00;32.10;;;22.77;;
40637;SDS011;26336;44.696;10.622;2023-12-20T15:37:04;37.23;;;23.30;;
40637;SDS011;26336;44.696;10.622;2023-12-20T15:40:11;60.03;;;27.50;;
40637;SDS011;26336;44.696;10.622;2023-12-20T15:43:16;47.53;;;29.50;;
40637;SDS011;26336;44.696;10.622;2023-12-20T15:46:20;47.07;;;25.83;;
40637;SDS011;26336;44.696;10.622;2023-12-20T15:49:25;40.80;;;28.53;;
40637;SDS011;26336;44.696;10.622;2023-12-20T15:52:28;36.07;;;28.17;;
40637;SDS011;26336;44.696;10.622;2023-12-20T15:55:33;41.77;;;27.23;;
40637;SDS011;26336;44.696;10.622;2023-12-20T15:58:36;47.13;;;28.83;;
40637;SDS011;26336;44.696;10.622;2023-12-20T16:01:41;37.80;;;27.03;;
40637;SDS011;26336;44.696;10.622;2023-12-20T16:04:45;39.50;;;25.77;;
40637;SDS011;26336;44.696;10.622;2023-12-20T16:07:48;42.70;;;26.70;;
40637;SDS011;26336;44.696;10.622;2023-12-20T16:10:55;40.93;;;26.50;;
40637;SDS011;26336;44.696;10.622;2023-12-20T16:13:59;33.70;;;24.60;;
40637;SDS011;26336;44.696;10.622;2023-12-20T16:17:03;38.93;;;24.23;;
40637;SDS011;26336;44.696;10.622;2023-12-20T16:20:08;36.37;;;23.77;;
40637;SDS011;26336;44.696;10.622;2023-12-20T16:23:13;37.17;;;24.20;;
40637;SDS011;26336;44.696;10.622;2023-12-20T16:26:17;33.57;;;22.97;;
40637;SDS011;26336;44.696;10.622;2023-12-20T16:29:21;39.40;;;25.03;;
40637;SDS011;26336;44.696;10.622;2023-12-20T16:32:25;38.83;;;24.27;;
40637;SDS011;26336;44.696;10.622;2023-12-20T16:35:29;42.43;;;25.33;;
40637;SDS011;26336;44.696;10.622;2023-12-20T16:38:33;41.20;;;25.20;;
40637;SDS011;26336;44.696;10.622;2023-12-20T16:41:40;40.87;;;23.90;;
40637;SDS011;26336;44.696;10.622;2023-12-20T16:44:44;39.37;;;24.00;;
40637;SDS011;26336;44.696;10.622;2023-12-20T16:47:48;38.87;;;25.83;;
40637;SDS011;26336;44.696;10.622;2023-12-20T16:50:55;37.57;;;26.37;;
40637;SDS011;26336;44.696;10.622;2023-12-20T16:53:59;40.73;;;24.87;;
40637;SDS011;26336;44.696;10.622;2023-12-20T16:57:03;44.53;;;25.80;;
40637;SDS011;26336;44.696;10.622;2023-12-20T17:00:11;38.17;;;24.00;;
40637;SDS011;26336;44.696;10.622;2023-12-20T17:03:15;45.30;;;26.10;;
40637;SDS011;26336;44.696;10.622;2023-12-20T17:06:20;39.57;;;24.97;;
40637;SDS011;26336;44.696;10.622;2023-12-20T17:09:24;37.37;;;25.57;;
40637;SDS011;26336;44.696;10.622;2023-12-20T17:12:29;38.53;;;24.73;;
40637;SDS011;26336;44.696;10.622;2023-12-20T17:15:33;40.73;;;25.77;;
40637;SDS011;26336;44.696;10.622;2023-12-20T17:18:37;33.83;;;24.00;;
40637;SDS011;26336;44.696;10.622;2023-12-20T17:21:43;40.93;;;26.13;;
40637;SDS011;26336;44.696;10.622;2023-12-20T17:24:48;41.73;;;26.77;;
40637;SDS011;26336;44.696;10.622;2023-12-20T17:27:52;36.20;;;25.03;;
40637;SDS011;26336;44.696;10.622;2023-12-20T17:30:56;37.43;;;25.20;;
40637;SDS011;26336;44.696;10.622;2023-12-20T17:34:00;41.50;;;26.77;;
40637;SDS011;26336;44.696;10.622;2023-12-20T17:37:04;39.27;;;25.97;;
40637;SDS011;26336;44.696;10.622;2023-12-20T17:40:08;39.50;;;25.27;;
40637;SDS011;26336;44.696;10.622;2023-12-20T17:43:12;35.83;;;25.20;;
40637;SDS011;26336;44.696;10.622;2023-12-20T17:46:16;41.13;;;27.10;;
40637;SDS011;26336;44.696;10.622;2023-12-20T17:49:20;40.37;;;27.07;;
40637;SDS011;26336;44.696;10.622;2023-12-20T17:52:24;36.27;;;26.53;;
40637;SDS011;26336;44.696;10.622;2023-12-20T17:55:29;41.53;;;27.83;;
40637;SDS011;26336;44.696;10.622;2023-12-20T17:58:33;44.47;;;28.50;;
40637;SDS011;26336;44.696;10.622;2023-12-20T18:01:38;39.03;;;26.37;;
40637;SDS011;26336;44.696;10.622;2023-12-20T18:04:42;38.27;;;28.53;;
40637;SDS011;26336;44.696;10.622;2023-12-20T18:07:46;41.60;;;28.33;;
40637;SDS011;26336;44.696;10.622;2023-12-20T18:10:51;42.77;;;28.40;;
40637;SDS011;26336;44.696;10.622;2023-12-20T18:13:58;41.03;;;26.10;;
40637;SDS011;26336;44.696;10.622;2023-12-20T18:17:05;38.27;;;27.80;;